createdAt,value
2018-12-03T00:01:45.577Z,13.70
2018-12-03T00:04:16.552Z,14.40
2018-12-03T00:06:45.145Z,13.63
2018-12-03T00:09:14.253Z,13.47
2018-12-03T00:11:42.699Z,13.97
2018-12-03T00:14:11.263Z,14.27
2018-12-03T00:16:40.704Z,11.73
2018-12-03T00:19:09.829Z,12.37
2018-12-03T00:21:39.931Z,10.90
2018-12-03T00:24:08.480Z,7.57
2018-12-03T00:26:37.991Z,8.63
2018-12-03T00:29:07.212Z,10.27
2018-12-03T00:31:36.301Z,7.43
2018-12-03T00:34:05.547Z,8.57
2018-12-03T00:36:34.882Z,7.13
2018-12-03T00:39:03.461Z,5.17
2018-12-03T00:41:32.956Z,3.57
2018-12-03T00:44:02.094Z,3.23
2018-12-03T00:46:30.553Z,3.93
2018-12-03T00:48:59.323Z,3.87
2018-12-03T00:51:29.160Z,3.03
2018-12-03T00:53:58.100Z,3.40
2018-12-03T00:56:26.574Z,4.00
2018-12-03T00:58:56.522Z,3.50
2018-12-03T01:01:25.351Z,2.90
2018-12-03T01:03:53.928Z,1.73
2018-12-03T01:06:22.766Z,1.67
2018-12-03T01:08:51.227Z,1.27
2018-12-03T01:11:20.027Z,0.90
2018-12-03T01:13:49.414Z,0.70
2018-12-03T01:16:18.110Z,0.83
2018-12-03T01:18:47.111Z,2.10
2018-12-03T01:21:16.358Z,0.70
2018-12-03T01:23:45.387Z,1.10
2018-12-03T01:26:14.169Z,0.80
2018-12-03T01:28:43.653Z,2.53
2018-12-03T01:31:12.484Z,1.03
2018-12-03T01:33:40.953Z,0.60
2018-12-03T01:36:10.300Z,0.77
2018-12-03T01:38:39.013Z,0.83
2018-12-03T01:41:07.695Z,0.60
2018-12-03T01:43:36.863Z,1.50
2018-12-03T01:46:06.618Z,1.53
2018-12-03T01:48:35.042Z,2.10
2018-12-03T01:51:03.525Z,0.50
2018-12-03T01:53:32.290Z,1.80
2018-12-03T01:56:01.362Z,0.57
2018-12-03T01:58:30.534Z,0.50
2018-12-03T02:00:59.462Z,0.50
2018-12-03T02:03:28.932Z,1.03
2018-12-03T02:05:58.040Z,0.50
2018-12-03T02:08:26.830Z,0.80
2018-12-03T02:10:55.310Z,2.47
2018-12-03T02:13:23.793Z,1.10
2018-12-03T02:15:52.569Z,1.33
2018-12-03T02:18:22.500Z,2.10
2018-12-03T02:20:50.992Z,0.70
2018-12-03T02:23:20.428Z,1.30
2018-12-03T02:25:48.885Z,2.40
2018-12-03T02:28:17.839Z,3.07
2018-12-03T02:30:46.791Z,2.43
2018-12-03T02:33:15.862Z,2.60
2018-12-03T02:35:44.882Z,2.43
2018-12-03T02:38:14.418Z,3.30
2018-12-03T02:40:43.635Z,2.80
2018-12-03T02:43:12.629Z,2.60
2018-12-03T02:45:41.068Z,3.43
2018-12-03T02:48:10.314Z,3.07
2018-12-03T02:50:40.194Z,3.03
2018-12-03T02:53:09.490Z,2.90
2018-12-03T02:55:38.801Z,3.07
2018-12-03T02:58:07.741Z,2.93
2018-12-03T03:00:38.919Z,3.20
2018-12-03T03:03:08.095Z,0.97
2018-12-03T03:05:37.306Z,1.73
2018-12-03T03:08:06.390Z,1.23
2018-12-03T03:10:35.078Z,1.00
2018-12-03T03:13:04.471Z,1.80
2018-12-03T03:15:32.966Z,1.37
2018-12-03T03:18:02.158Z,1.33
2018-12-03T03:20:32.075Z,1.47
2018-12-03T03:23:01.206Z,1.37
2018-12-03T03:25:29.663Z,1.40
2018-12-03T03:27:58.123Z,0.87
2018-12-03T03:30:27.215Z,3.67
2018-12-03T03:32:55.900Z,1.73
2018-12-03T03:35:25.097Z,1.13
2018-12-03T03:37:54.154Z,2.20
2018-12-03T03:40:23.466Z,1.47
2018-12-03T03:42:52.103Z,2.77
2018-12-03T03:45:22.401Z,1.40
2018-12-03T03:47:51.139Z,0.80
2018-12-03T03:50:20.222Z,2.30
2018-12-03T03:52:48.909Z,1.20
2018-12-03T03:55:18.059Z,2.67
2018-12-03T03:57:46.808Z,0.67
2018-12-03T04:00:16.112Z,2.67
2018-12-03T04:02:45.257Z,1.83
2018-12-03T04:05:14.750Z,5.63
2018-12-03T04:07:44.470Z,0.70
2018-12-03T04:10:14.186Z,0.80
2018-12-03T04:12:43.449Z,2.50
2018-12-03T04:15:13.251Z,0.63
2018-12-03T04:17:41.960Z,1.90
2018-12-03T04:20:12.493Z,2.23
2018-12-03T04:22:41.545Z,1.80
2018-12-03T04:25:11.182Z,1.87
2018-12-03T04:27:39.640Z,1.47
2018-12-03T04:30:15.860Z,1.17
2018-12-03T04:32:44.897Z,3.57
2018-12-03T04:35:14.585Z,1.60
2018-12-03T04:37:43.675Z,3.03
2018-12-03T04:40:14.215Z,2.10
2018-12-03T04:42:43.225Z,5.53
2018-12-03T04:45:16.044Z,2.53
2018-12-03T04:47:44.506Z,2.27
2018-12-03T04:50:14.605Z,2.17
2018-12-03T04:52:43.276Z,1.73
2018-12-03T04:55:12.739Z,2.87
2018-12-03T04:57:41.494Z,4.73
2018-12-03T05:00:12.699Z,4.60
2018-12-03T05:02:41.936Z,4.23
2018-12-03T05:05:10.879Z,2.97
2018-12-03T05:07:39.736Z,3.90
2018-12-03T05:10:15.180Z,3.80
2018-12-03T05:12:45.842Z,3.80
2018-12-03T05:15:14.702Z,2.33
2018-12-03T05:17:43.761Z,3.40
2018-12-03T05:20:14.541Z,2.03
2018-12-03T05:22:44.091Z,3.00
2018-12-03T05:25:11.713Z,2.47
2018-12-03T05:27:41.067Z,1.50
2018-12-03T05:30:13.795Z,1.60
2018-12-03T05:32:42.799Z,1.77
2018-12-03T05:35:12.713Z,1.30
2018-12-03T05:37:41.556Z,3.07
2018-12-03T05:40:13.314Z,2.03
2018-12-03T05:42:42.386Z,1.93
2018-12-03T05:45:10.988Z,2.20
2018-12-03T05:47:40.018Z,2.80
2018-12-03T05:50:10.841Z,1.10
2018-12-03T05:52:40.568Z,2.87
2018-12-03T05:55:10.354Z,3.03
2018-12-03T05:57:40.024Z,2.13
2018-12-03T06:00:11.359Z,1.63
2018-12-03T06:02:40.219Z,1.77
2018-12-03T06:05:09.676Z,1.30
2018-12-03T06:07:38.467Z,2.37
2018-12-03T06:10:12.954Z,5.90
2018-12-03T06:12:41.953Z,3.37
2018-12-03T06:15:18.266Z,3.67
2018-12-03T06:17:48.059Z,3.00
2018-12-03T06:20:17.561Z,3.17
2018-12-03T06:22:46.712Z,1.93
2018-12-03T06:25:18.284Z,2.33
2018-12-03T06:27:47.531Z,2.00
2018-12-03T06:30:19.335Z,1.13
2018-12-03T06:32:47.806Z,0.40
2018-12-03T06:35:17.094Z,1.43
2018-12-03T06:37:46.202Z,0.93
2018-12-03T06:40:19.255Z,2.47
2018-12-03T06:42:47.746Z,1.57
2018-12-03T06:45:20.321Z,3.07
2018-12-03T06:47:55.662Z,2.13
2018-12-03T06:50:24.448Z,13.93
2018-12-03T06:52:59.626Z,8.30
2018-12-03T06:55:30.195Z,11.50
2018-12-03T06:58:02.451Z,15.50
2018-12-03T07:00:34.156Z,3.40
2018-12-03T07:03:06.224Z,13.17
2018-12-03T07:05:35.918Z,35.40
2018-12-03T07:08:06.567Z,11.83
2018-12-03T07:10:35.123Z,5.97
2018-12-03T07:13:18.932Z,26.10
2018-12-03T07:15:50.206Z,2.60
2018-12-03T07:18:22.169Z,12.30
2018-12-03T07:20:53.714Z,19.70
2018-12-03T07:23:27.484Z,21.03
2018-12-03T07:25:59.978Z,45.20
2018-12-03T07:31:20.420Z,6.80
2018-12-03T07:34:03.425Z,17.10
2018-12-03T07:36:37.870Z,17.63
2018-12-03T07:39:09.964Z,18.03
2018-12-03T07:41:38.719Z,14.20
2018-12-03T07:44:07.962Z,30.70
2018-12-03T07:46:37.993Z,18.07
2018-12-03T07:49:06.678Z,5.20
2018-12-03T07:51:35.613Z,4.10
2018-12-03T07:54:04.719Z,3.33
2018-12-03T07:56:36.838Z,2.50
2018-12-03T07:59:27.466Z,4.63
2018-12-03T08:02:13.337Z,5.70
2018-12-03T08:04:44.836Z,1.57
2018-12-03T08:07:15.664Z,1.37
2018-12-03T08:09:44.350Z,3.33
2018-12-03T08:12:13.139Z,3.23
2018-12-03T08:14:44.078Z,5.20
2018-12-03T08:17:14.454Z,14.77
2018-12-03T08:19:46.674Z,4.77
2018-12-03T08:22:17.090Z,6.30
2018-12-03T08:24:50.573Z,10.53
2018-12-03T08:27:20.326Z,4.83
2018-12-03T08:29:50.919Z,3.30
2018-12-03T08:32:21.623Z,1.90
2018-12-03T08:34:53.019Z,6.80
2018-12-03T08:37:21.963Z,1.70
2018-12-03T08:39:59.295Z,3.40
2018-12-03T08:42:34.599Z,8.97
2018-12-03T08:45:04.515Z,11.13
2018-12-03T08:47:46.337Z,4.53
2018-12-03T08:50:23.668Z,3.37
2018-12-03T08:52:54.882Z,4.23
2018-12-03T08:55:25.430Z,3.87
2018-12-03T08:57:54.781Z,2.67
2018-12-03T09:00:28.250Z,1.87
2018-12-03T09:03:04.029Z,3.10
2018-12-03T09:05:40.045Z,1.50
2018-12-03T09:08:14.306Z,1.80
2018-12-03T09:10:44.170Z,1.27
2018-12-03T09:13:17.604Z,0.77
2018-12-03T09:15:56.329Z,2.10
2018-12-03T09:18:38.049Z,1.10
2018-12-03T09:21:14.099Z,1.20
2018-12-03T09:23:45.524Z,1.57
2018-12-03T09:26:24.705Z,2.07
2018-12-03T09:28:55.650Z,1.87
2018-12-03T09:31:32.391Z,1.83
2018-12-03T09:34:02.694Z,6.13
2018-12-03T09:36:34.115Z,37.70
2018-12-03T09:39:08.567Z,5.67
2018-12-03T09:41:39.718Z,3.10
2018-12-03T09:44:09.311Z,2.30
2018-12-03T09:46:38.156Z,2.50
2018-12-03T09:49:07.392Z,4.23
2018-12-03T09:51:37.254Z,1.03
2018-12-03T09:54:07.399Z,2.70
2018-12-03T09:56:52.616Z,2.97
2018-12-03T09:59:22.717Z,4.50
2018-12-03T10:01:53.357Z,3.73
2018-12-03T10:04:30.600Z,1.47
2018-12-03T10:07:00.107Z,2.83
2018-12-03T10:09:39.067Z,1.60
2018-12-03T10:12:09.102Z,2.57
2018-12-03T10:14:46.585Z,2.07
2018-12-03T10:19:59.418Z,3.43
2018-12-03T10:22:32.094Z,2.63
2018-12-03T10:25:02.394Z,3.63
2018-12-03T10:27:31.062Z,3.70
2018-12-03T10:30:00.119Z,2.70
2018-12-03T10:32:29.106Z,1.43
2018-12-03T10:35:13.996Z,3.77
2018-12-03T10:37:42.790Z,2.83
2018-12-03T10:40:18.450Z,4.47
2018-12-03T10:42:49.878Z,2.80
2018-12-03T10:45:26.134Z,3.47
2018-12-03T10:47:55.434Z,1.70
2018-12-03T10:50:24.922Z,2.53
2018-12-03T10:52:53.947Z,3.10
2018-12-03T10:56:02.155Z,3.00
2018-12-03T10:58:36.335Z,4.03
2018-12-03T11:01:16.240Z,7.20
2018-12-03T11:03:55.171Z,2.10
2018-12-03T11:06:32.352Z,25.90
2018-12-03T11:09:01.985Z,3.37
2018-12-03T11:11:31.446Z,2.47
2018-12-03T11:14:16.382Z,2.40
2018-12-03T11:16:48.793Z,3.77
2018-12-03T11:19:21.316Z,1.90
2018-12-03T11:21:51.668Z,2.70
2018-12-03T11:24:21.817Z,4.03
2018-12-03T11:26:57.630Z,2.13
2018-12-03T11:29:47.329Z,4.07
2018-12-03T11:32:24.148Z,1.57
2018-12-03T11:34:52.635Z,3.30
2018-12-03T11:37:21.628Z,2.83
2018-12-03T11:39:56.351Z,2.90
2018-12-03T11:42:35.195Z,4.93
2018-12-03T11:45:09.527Z,3.30
2018-12-03T11:47:41.422Z,2.43
2018-12-03T11:50:14.054Z,2.80
2018-12-03T11:52:45.470Z,2.57
2018-12-03T11:55:16.315Z,3.90
2018-12-03T11:57:56.939Z,3.50
2018-12-03T12:00:27.210Z,1.47
2018-12-03T12:02:57.157Z,3.03
2018-12-03T12:05:30.976Z,1.97
2018-12-03T12:08:01.048Z,2.00
2018-12-03T12:10:30.872Z,1.63
2018-12-03T12:13:05.451Z,3.60
2018-12-03T12:15:34.641Z,2.67
2018-12-03T12:18:03.199Z,4.10
2018-12-03T12:20:31.672Z,3.20
2018-12-03T12:23:01.294Z,1.13
2018-12-03T12:25:29.752Z,1.50
2018-12-03T12:28:00.263Z,2.00
2018-12-03T12:30:28.966Z,2.60
2018-12-03T12:32:57.426Z,2.43
2018-12-03T12:35:25.966Z,2.43
2018-12-03T12:37:56.881Z,2.87
2018-12-03T12:40:24.940Z,1.67
2018-12-03T12:42:53.415Z,0.70
2018-12-03T12:45:27.933Z,1.63
2018-12-03T12:47:56.891Z,2.10
2018-12-03T12:50:25.406Z,4.13
2018-12-03T12:52:53.873Z,2.10
2018-12-03T12:55:23.747Z,1.17
2018-12-03T12:57:53.353Z,2.53
2018-12-03T13:00:22.849Z,2.93
2018-12-03T13:02:53.137Z,2.77
2018-12-03T13:05:22.526Z,3.23
2018-12-03T13:07:51.001Z,1.70
2018-12-03T13:10:19.523Z,1.73
2018-12-03T13:12:52.797Z,5.07
2018-12-03T13:15:23.111Z,4.30
2018-12-03T13:17:57.017Z,4.07
2018-12-03T13:20:28.245Z,5.87
2018-12-03T13:22:57.669Z,3.57
2018-12-03T13:25:28.376Z,2.37
2018-12-03T13:27:57.914Z,1.23
2018-12-03T13:30:32.846Z,2.77
2018-12-03T13:33:05.401Z,2.23
2018-12-03T13:35:35.581Z,2.70
2018-12-03T13:38:11.804Z,3.50
2018-12-03T13:40:41.758Z,1.97
2018-12-03T13:43:14.925Z,1.97
2018-12-03T13:45:43.846Z,1.30
2018-12-03T13:48:19.537Z,3.10
2018-12-03T13:50:48.905Z,1.30
2018-12-03T13:53:19.937Z,1.43
2018-12-03T13:55:52.024Z,2.50
2018-12-03T13:58:21.974Z,1.93
2018-12-03T14:03:47.603Z,0.83
2018-12-03T14:06:26.905Z,1.27
2018-12-03T14:09:21.616Z,2.33
2018-12-03T14:12:03.018Z,0.90
2018-12-03T14:14:47.764Z,2.07
2018-12-03T14:17:28.551Z,1.87
2018-12-03T14:19:59.518Z,1.20
2018-12-03T14:22:43.458Z,0.70
2018-12-03T14:25:13.013Z,2.10
2018-12-03T14:27:43.747Z,2.10
2018-12-03T14:30:13.907Z,0.90
2018-12-03T14:32:44.690Z,2.10
2018-12-03T14:35:15.540Z,0.67
2018-12-03T14:37:44.487Z,1.10
2018-12-03T14:40:13.615Z,0.87
2018-12-03T14:42:44.076Z,1.40
2018-12-03T14:45:15.949Z,1.53
2018-12-03T14:47:45.375Z,1.37
2018-12-03T14:50:15.103Z,8.23
2018-12-03T14:52:44.439Z,0.70
2018-12-03T14:55:13.248Z,0.70
2018-12-03T14:57:42.046Z,0.90
2018-12-03T15:00:19.653Z,1.10
2018-12-03T15:02:50.068Z,1.33
2018-12-03T15:05:21.125Z,1.37
2018-12-03T15:07:50.072Z,0.93
2018-12-03T15:10:19.952Z,4.53
2018-12-03T15:12:49.182Z,4.83
2018-12-03T15:15:18.613Z,1.20
2018-12-03T15:17:48.305Z,20.97
2018-12-03T15:20:17.038Z,1.60
2018-12-03T15:22:46.685Z,5.87
2018-12-03T15:25:15.602Z,2.50
2018-12-03T15:27:44.085Z,0.87
2018-12-03T15:30:13.175Z,1.37
2018-12-03T15:32:41.737Z,5.93
2018-12-03T15:35:12.437Z,2.53
2018-12-03T15:37:42.253Z,8.03
2018-12-03T15:40:14.018Z,17.93
2018-12-03T15:42:42.782Z,7.33
2018-12-03T15:45:15.248Z,3.23
2018-12-03T15:47:44.882Z,2.73
2018-12-03T15:50:13.732Z,4.87
2018-12-03T15:52:42.236Z,3.03
2018-12-03T15:55:13.363Z,6.47
2018-12-03T15:57:43.844Z,7.57
2018-12-03T16:00:13.753Z,9.10
2018-12-03T16:02:42.946Z,2.87
2018-12-03T16:05:19.992Z,3.43
2018-12-03T16:07:48.953Z,2.37
2018-12-03T16:10:19.061Z,1.83
2018-12-03T16:12:48.163Z,2.70
2018-12-03T16:15:17.247Z,1.43
2018-12-03T16:17:46.703Z,1.37
2018-12-03T16:20:15.475Z,3.90
2018-12-03T16:22:44.500Z,0.90
2018-12-03T16:25:13.342Z,2.03
2018-12-03T16:27:48.852Z,2.37
2018-12-03T16:30:21.280Z,2.53
2018-12-03T16:32:56.536Z,1.57
2018-12-03T16:35:28.589Z,2.87
2018-12-03T16:38:02.151Z,4.23
2018-12-03T16:40:32.847Z,7.90
2018-12-03T16:43:07.163Z,4.87
2018-12-03T16:45:35.822Z,5.23
2018-12-03T16:48:06.248Z,4.27
2018-12-03T16:50:36.072Z,3.27
2018-12-03T16:53:12.089Z,4.63
2018-12-03T16:55:41.180Z,6.90
2018-12-03T16:58:10.857Z,10.50
2018-12-03T17:00:43.135Z,9.07
2018-12-03T17:03:12.077Z,8.57
2018-12-03T17:05:41.672Z,7.17
2018-12-03T17:08:10.110Z,4.13
2018-12-03T17:10:51.815Z,4.23
2018-12-03T17:13:26.141Z,3.40
2018-12-03T17:18:41.955Z,4.10
2018-12-03T17:21:20.548Z,5.63
2018-12-03T17:24:11.406Z,9.40
2018-12-03T17:26:47.370Z,8.87
2018-12-03T17:29:20.393Z,54.80
2018-12-03T17:31:53.638Z,30.67
2018-12-03T17:34:23.345Z,21.27
2018-12-03T17:36:52.232Z,24.03
2018-12-03T17:39:25.404Z,28.90
2018-12-03T17:41:58.372Z,22.53
2018-12-03T17:44:28.904Z,22.07
2018-12-03T17:47:03.561Z,18.30
2018-12-03T17:49:34.679Z,21.03
2018-12-03T17:52:08.902Z,22.97
2018-12-03T17:54:38.359Z,22.97
2018-12-03T17:57:09.730Z,23.03
2018-12-03T17:59:43.828Z,20.33
2018-12-03T18:02:17.812Z,20.73
2018-12-03T18:04:54.532Z,18.93
2018-12-03T18:07:23.171Z,19.07
2018-12-03T18:09:55.575Z,18.70
2018-12-03T18:12:30.943Z,19.13
2018-12-03T18:15:00.351Z,18.63
2018-12-03T18:17:29.681Z,18.57
2018-12-03T18:20:01.324Z,22.47
2018-12-03T18:22:31.681Z,21.57
2018-12-03T18:25:00.941Z,21.33
2018-12-03T18:27:29.704Z,27.20
2018-12-03T18:30:00.452Z,30.07
2018-12-03T18:32:33.302Z,36.47
2018-12-03T18:35:08.451Z,27.47
2018-12-03T18:37:40.925Z,29.50
2018-12-03T18:40:15.689Z,27.07
2018-12-03T18:42:47.987Z,22.53
2018-12-03T18:45:20.666Z,26.90
2018-12-03T18:47:53.543Z,21.20
2018-12-03T18:50:36.528Z,19.90
2018-12-03T18:53:14.590Z,20.97
2018-12-03T18:55:45.751Z,19.57
2018-12-03T18:58:18.452Z,23.83
2018-12-03T19:00:48.019Z,23.27
2018-12-03T19:03:17.598Z,27.27
2018-12-03T19:05:50.037Z,23.07
2018-12-03T19:08:21.574Z,24.80
2018-12-03T19:10:58.057Z,22.87
2018-12-03T19:13:29.393Z,26.60
2018-12-03T19:16:03.711Z,22.47
2018-12-03T19:18:32.323Z,22.10
2018-12-03T19:21:02.479Z,22.73
2018-12-03T19:23:34.657Z,20.97
2018-12-03T19:26:09.686Z,21.60
2018-12-03T19:28:41.714Z,22.90
2018-12-03T19:31:13.012Z,21.90
2018-12-03T19:33:42.442Z,22.83
2018-12-03T19:36:16.596Z,21.13
2018-12-03T19:38:48.865Z,19.97
2018-12-03T19:41:24.943Z,23.40
2018-12-03T19:43:55.672Z,23.03
2018-12-03T19:46:28.464Z,23.67
2018-12-03T19:49:02.091Z,21.67
2018-12-03T19:51:32.896Z,21.27
2018-12-03T19:54:09.923Z,21.77
2018-12-03T19:56:42.612Z,23.70
2018-12-03T19:59:15.502Z,24.43
2018-12-03T20:01:45.156Z,23.27
2018-12-03T20:04:27.159Z,19.03
2018-12-03T20:06:55.619Z,21.43
2018-12-03T20:09:27.631Z,19.20
2018-12-03T20:12:00.594Z,23.23
2018-12-03T20:14:35.545Z,22.13
2018-12-03T20:17:08.024Z,23.43
2018-12-03T20:19:38.357Z,21.13
2018-12-03T20:22:10.885Z,23.30
2018-12-03T20:24:42.158Z,35.23
2018-12-03T20:28:19.327Z,60.80
2018-12-03T20:30:58.759Z,44.97
2018-12-03T20:33:36.397Z,38.83
2018-12-03T20:36:21.099Z,31.20
2018-12-03T20:39:06.969Z,24.10
2018-12-03T20:41:39.809Z,25.77
2018-12-03T20:44:22.231Z,25.50
2018-12-03T20:47:00.446Z,27.30
2018-12-03T20:49:43.840Z,25.27
2018-12-03T20:52:21.216Z,33.40
2018-12-03T20:54:52.819Z,39.53
2018-12-03T20:57:21.266Z,29.93
2018-12-03T20:59:51.755Z,24.77
2018-12-03T21:02:21.750Z,21.90
2018-12-03T21:04:50.477Z,19.50
2018-12-03T21:07:18.920Z,14.23
2018-12-03T21:09:47.449Z,12.23
2018-12-03T21:12:17.833Z,16.77
2018-12-03T21:14:46.297Z,12.97
2018-12-03T21:17:15.210Z,13.90
2018-12-03T21:19:46.824Z,16.40
2018-12-03T21:22:17.456Z,12.77
2018-12-03T21:24:46.312Z,10.23
2018-12-03T21:27:20.927Z,7.07
2018-12-03T21:29:51.901Z,11.03
2018-12-03T21:32:21.497Z,8.83
2018-12-03T21:34:59.207Z,10.00
2018-12-03T21:37:29.527Z,5.03
2018-12-03T21:39:59.269Z,3.50
2018-12-03T21:42:28.811Z,8.07
2018-12-03T21:44:59.904Z,21.13
2018-12-03T21:47:29.180Z,7.07
2018-12-03T21:50:04.328Z,3.73
2018-12-03T21:52:31.461Z,2.77
2018-12-03T21:55:00.342Z,2.30
2018-12-03T21:57:32.138Z,4.83
2018-12-03T22:00:01.512Z,2.27
2018-12-03T22:02:30.846Z,5.27
2018-12-03T22:05:01.880Z,4.57
2018-12-03T22:07:31.038Z,2.90
2018-12-03T22:10:02.373Z,4.57
2018-12-03T22:12:32.486Z,5.80
2018-12-03T22:15:03.287Z,4.33
2018-12-03T22:17:32.361Z,7.87
2018-12-03T22:20:00.816Z,4.53
2018-12-03T22:22:29.310Z,5.67
2018-12-03T22:24:57.775Z,4.97
2018-12-03T22:27:28.082Z,6.40
2018-12-03T22:29:57.310Z,6.60
2018-12-03T22:32:26.575Z,4.27
2018-12-03T22:34:55.036Z,3.50
2018-12-03T22:37:25.153Z,4.87
2018-12-03T22:39:55.384Z,6.87
2018-12-03T22:42:23.870Z,4.50
2018-12-03T22:44:54.130Z,8.53
2018-12-03T22:47:23.099Z,4.40
2018-12-03T22:49:51.969Z,4.77
2018-12-03T22:52:20.438Z,6.33
2018-12-03T22:54:50.005Z,6.93
2018-12-03T22:57:18.467Z,8.33
2018-12-03T22:59:47.637Z,7.67
2018-12-03T23:02:18.117Z,8.27
2018-12-03T23:04:48.176Z,5.20
2018-12-03T23:07:17.494Z,9.30
2018-12-03T23:09:46.478Z,7.20
2018-12-03T23:12:14.946Z,5.97
2018-12-03T23:14:44.098Z,8.33
2018-12-03T23:17:13.658Z,6.70
2018-12-03T23:19:42.108Z,9.30
2018-12-03T23:22:13.546Z,7.47
2018-12-03T23:24:42.834Z,7.43
2018-12-03T23:27:11.879Z,6.33
2018-12-03T23:29:40.321Z,9.50
2018-12-03T23:32:08.773Z,4.63
2018-12-03T23:34:39.142Z,7.47
2018-12-03T23:37:07.634Z,5.70
2018-12-03T23:39:36.114Z,5.63
2018-12-03T23:42:04.687Z,4.73
2018-12-03T23:44:33.369Z,6.37
2018-12-03T23:47:01.956Z,5.67
2018-12-03T23:49:31.993Z,5.90
2018-12-03T23:52:00.435Z,6.40
2018-12-03T23:54:28.878Z,4.80
2018-12-03T23:56:57.930Z,6.73
2018-12-03T23:59:27.474Z,5.10
